<?xml version="1.0" encoding="UTF-8" standalone="no" ?><gpx xmlns="http://www.topografix.com/GPX/1/1" xmlns:gpxx="http://www.garmin.com/xmlschemas/GpxExtensions/v3" xmlns:gpxtrkx="http://www.garmin.com/xmlschemas/TrackStatsExtension/v1" xmlns:wptx1="http://www.garmin.com/xmlschemas/WaypointExtension/v1" xmlns:gpxtpx="http://www.garmin.com/xmlschemas/TrackPointExtension/v1" creator="Oregon 700" version="1.1" xmlns:xsi="http://www.w3.org/2001/XMLSchema-instance" xsi:schemaLocation="http://www.topografix.com/GPX/1/1 http://www.topografix.com/GPX/1/1/gpx.xsd http://www.garmin.com/xmlschemas/GpxExtensions/v3 http://www8.garmin.com/xmlschemas/GpxExtensionsv3.xsd http://www.garmin.com/xmlschemas/TrackStatsExtension/v1 http://www8.garmin.com/xmlschemas/TrackStatsExtension.xsd http://www.garmin.com/xmlschemas/WaypointExtension/v1 http://www8.garmin.com/xmlschemas/WaypointExtensionv1.xsd http://www.garmin.com/xmlschemas/TrackPointExtension/v1 http://www.garmin.com/xmlschemas/TrackPointExtensionv1.xsd"><metadata><link href="http://www.garmin.com"><text>Garmin International</text></link><time>2023-08-09T15:05:16Z</time></metadata><trk><name>Current Track: 09 AUG 2023 11:05</name><extensions><gpxx:TrackExtension><gpxx:DisplayColor>Cyan</gpxx:DisplayColor></gpxx:TrackExtension><gpxtrkx:TrackStatsExtension><gpxtrkx:Distance>1940.000</gpxtrkx:Distance><gpxtrkx:TimerTime>3178</gpxtrkx:TimerTime><gpxtrkx:TotalElapsedTime>18009</gpxtrkx:TotalElapsedTime><gpxtrkx:MovingTime>2754</gpxtrkx:MovingTime><gpxtrkx:StoppedTime>425</gpxtrkx:StoppedTime><gpxtrkx:MovingSpeed>0.705</gpxtrkx:MovingSpeed><gpxtrkx:MaxSpeed>1.105</gpxtrkx:MaxSpeed><gpxtrkx:MaxElevation>156.203</gpxtrkx:MaxElevation><gpxtrkx:MinElevation>139.631</gpxtrkx:MinElevation><gpxtrkx:Ascent>29.000</gpxtrkx:Ascent><gpxtrkx:Descent>26.685</gpxtrkx:Descent><gpxtrkx:AvgAscentRate>0.032</gpxtrkx:AvgAscentRate><gpxtrkx:MaxAscentRate>0.084</gpxtrkx:MaxAscentRate><gpxtrkx:AvgDescentRate>0.024</gpxtrkx:AvgDescentRate><gpxtrkx:MaxDescentRate>-0.056</gpxtrkx:MaxDescentRate><gpxtrkx:Calories>87</gpxtrkx:Calories></gpxtrkx:TrackStatsExtension></extensions><trkseg><trkpt lat="51.8136494234" lon="-2.0903064217"><ele>147.72</ele><time>2023-08-09T10:05:08Z</time></trkpt><trkpt lat="51.8136583082" lon="-2.0903272089"><ele>145.09</ele><time>2023-08-09T10:05:25Z</time></trkpt><trkpt lat="51.8136566319" lon="-2.0903357584"><ele>148.36</ele><time>2023-08-09T10:05:28Z</time></trkpt><trkpt lat="51.8136547040" lon="-2.0903555397"><ele>150.16</ele><time>2023-08-09T10:05:31Z</time></trkpt><trkpt lat="51.8136390299" lon="-2.0904110279"><ele>148.05</ele><time>2023-08-09T10:05:50Z</time></trkpt><trkpt lat="51.8136321567" lon="-2.0904126205"><ele>147.76</ele><time>2023-08-09T10:06:13Z</time></trkpt><trkpt lat="51.8135803565" lon="-2.0904096030"><ele>146.87</ele><time>2023-08-09T10:06:34Z</time></trkpt><trkpt lat="51.8134946097" lon="-2.0903341658"><ele>145.45</ele><time>2023-08-09T10:07:07Z</time></trkpt><trkpt lat="51.8133320007" lon="-2.0902459882"><ele>144.73</ele><time>2023-08-09T10:07:28Z</time></trkpt><trkpt lat="51.8132486008" lon="-2.0900513604"><ele>143.95</ele><time>2023-08-09T10:07:48Z</time></trkpt><trkpt lat="51.8132701423" lon="-2.0898574032"><ele>142.99</ele><time>2023-08-09T10:08:07Z</time></trkpt><trkpt lat="51.8132819608" lon="-2.0896621048"><ele>141.79</ele><time>2023-08-09T10:08:32Z</time></trkpt><trkpt lat="51.8132672086" lon="-2.0895431656"><ele>141.63</ele><time>2023-08-09T10:08:57Z</time></trkpt><trkpt lat="51.8132172525" lon="-2.0894000866"><ele>141.12</ele><time>2023-08-09T10:09:23Z</time></trkpt><trkpt lat="51.8131236266" lon="-2.0893244818"><ele>140.76</ele><time>2023-08-09T10:09:42Z</time></trkpt><trkpt lat="51.8130481057" lon="-2.0893480349"><ele>140.06</ele><time>2023-08-09T10:10:00Z</time></trkpt><trkpt lat="51.8129981495" lon="-2.0893894415"><ele>140.40</ele><time>2023-08-09T10:10:25Z</time></trkpt><trkpt lat="51.8128607702" lon="-2.0893972367"><ele>140.08</ele><time>2023-08-09T10:10:46Z</time></trkpt><trkpt lat="51.8128118198" lon="-2.0894036908"><ele>140.16</ele><time>2023-08-09T10:11:01Z</time></trkpt><trkpt lat="51.8127416633" lon="-2.0893834066"><ele>140.06</ele><time>2023-08-09T10:11:08Z</time></trkpt><trkpt lat="51.8125750311" lon="-2.0893799700"><ele>140.28</ele><time>2023-08-09T10:11:24Z</time></trkpt><trkpt lat="51.8125401624" lon="-2.0893717557"><ele>140.54</ele><time>2023-08-09T10:11:45Z</time></trkpt><trkpt lat="51.8125062156" lon="-2.0893786289"><ele>140.54</ele><time>2023-08-09T10:12:06Z</time></trkpt><trkpt lat="51.8124240730" lon="-2.0894624479"><ele>140.54</ele><time>2023-08-09T10:12:24Z</time></trkpt><trkpt lat="51.8124125898" lon="-2.0895686466"><ele>140.54</ele><time>2023-08-09T10:12:34Z</time></trkpt><trkpt lat="51.8124171998" lon="-2.0896906033"><ele>142.00</ele><time>2023-08-09T10:12:46Z</time></trkpt><trkpt lat="51.8124256656" lon="-2.0898351911"><ele>143.15</ele><time>2023-08-09T10:12:58Z</time></trkpt><trkpt lat="51.8124515656" lon="-2.0899846405"><ele>144.10</ele><time>2023-08-09T10:13:11Z</time></trkpt><trkpt lat="51.8124446925" lon="-2.0901270490"><ele>144.92</ele><time>2023-08-09T10:13:34Z</time></trkpt><trkpt lat="51.8124362268" lon="-2.0901205111"><ele>145.12</ele><time>2023-08-09T10:14:00Z</time></trkpt><trkpt lat="51.8123874441" lon="-2.0902985428"><ele>145.24</ele><time>2023-08-09T10:14:23Z</time></trkpt><trkpt lat="51.8123743683" lon="-2.0903978683"><ele>145.91</ele><time>2023-08-09T10:14:42Z</time></trkpt><trkpt lat="51.8123073969" lon="-2.0904199127"><ele>146.18</ele><time>2023-08-09T10:15:00Z</time></trkpt><trkpt lat="51.8123011105" lon="-2.0905610640"><ele>146.70</ele><time>2023-08-09T10:15:22Z</time></trkpt><trkpt lat="51.8123488035" lon="-2.0906602219"><ele>146.98</ele><time>2023-08-09T10:15:38Z</time></trkpt><trkpt lat="51.8123560958" lon="-2.0907837711"><ele>147.35</ele><time>2023-08-09T10:15:57Z</time></trkpt><trkpt lat="51.8123615440" lon="-2.0911153592"><ele>148.78</ele><time>2023-08-09T10:16:36Z</time></trkpt><trkpt lat="51.8123331293" lon="-2.0912870206"><ele>149.50</ele><time>2023-08-09T10:16:58Z</time></trkpt><trkpt lat="51.8122991826" lon="-2.0915002562"><ele>149.92</ele><time>2023-08-09T10:17:11Z</time></trkpt><trkpt lat="51.8122567702" lon="-2.0916522201"><ele>150.23</ele><time>2023-08-09T10:17:25Z</time></trkpt><trkpt lat="51.8122890405" lon="-2.0916752703"><ele>150.36</ele><time>2023-08-09T10:17:45Z</time></trkpt><trkpt lat="51.8122374918" lon="-2.0919270627"><ele>150.42</ele><time>2023-08-09T10:18:06Z</time></trkpt><trkpt lat="51.8121976778" lon="-2.0922319125"><ele>151.23</ele><time>2023-08-09T10:18:30Z</time></trkpt><trkpt lat="51.8121887930" lon="-2.0925557055"><ele>151.81</ele><time>2023-08-09T10:18:55Z</time></trkpt><trkpt lat="51.8121756334" lon="-2.0928330626"><ele>153.20</ele><time>2023-08-09T10:19:17Z</time></trkpt><trkpt lat="51.8121429440" lon="-2.0930687618"><ele>153.12</ele><time>2023-08-09T10:19:35Z</time></trkpt><trkpt lat="51.8121184688" lon="-2.0932667423"><ele>153.40</ele><time>2023-08-09T10:19:55Z</time></trkpt><trkpt lat="51.8121043872" lon="-2.0933356415"><ele>153.33</ele><time>2023-08-09T10:20:01Z</time></trkpt><trkpt lat="51.8120766431" lon="-2.0935680717"><ele>154.18</ele><time>2023-08-09T10:20:20Z</time></trkpt><trkpt lat="51.8120620586" lon="-2.0938340295"><ele>155.01</ele><time>2023-08-09T10:20:41Z</time></trkpt><trkpt lat="51.8120370805" lon="-2.0939357858"><ele>155.11</ele><time>2023-08-09T10:20:52Z</time></trkpt><trkpt lat="51.8120391760" lon="-2.0940693934"><ele>155.91</ele><time>2023-08-09T10:21:11Z</time></trkpt><trkpt lat="51.8120492343" lon="-2.0941214450"><ele>155.93</ele><time>2023-08-09T10:21:39Z</time></trkpt><trkpt lat="51.8120327219" lon="-2.0940493606"><ele>155.75</ele><time>2023-08-09T10:22:04Z</time></trkpt><trkpt lat="51.8120482285" lon="-2.0941111352"><ele>156.21</ele><time>2023-08-09T10:22:30Z</time></trkpt><trkpt lat="51.8119665887" lon="-2.0940800384"><ele>155.80</ele><time>2023-08-09T10:22:50Z</time></trkpt><trkpt lat="51.8118217494" lon="-2.0939355344"><ele>155.53</ele><time>2023-08-09T10:23:14Z</time></trkpt><trkpt lat="51.8117908202" lon="-2.0939127356"><ele>155.53</ele><time>2023-08-09T10:23:39Z</time></trkpt><trkpt lat="51.8117231783" lon="-2.0938300062"><ele>155.53</ele><time>2023-08-09T10:24:02Z</time></trkpt><trkpt lat="51.8116565421" lon="-2.0937586762"><ele>154.04</ele><time>2023-08-09T10:24:21Z</time></trkpt><trkpt lat="51.8115966115" lon="-2.0936106518"><ele>153.70</ele><time>2023-08-09T10:24:38Z</time></trkpt><trkpt lat="51.8115754053" lon="-2.0935497154"><ele>153.26</ele><time>2023-08-09T10:24:58Z</time></trkpt><trkpt lat="51.8114603218" lon="-2.0933616254"><ele>152.77</ele><time>2023-08-09T10:25:22Z</time></trkpt><trkpt lat="51.8113566376" lon="-2.0931636449"><ele>152.32</ele><time>2023-08-09T10:25:49Z</time></trkpt><trkpt lat="51.8112612516" lon="-2.0929590426"><ele>151.82</ele><time>2023-08-09T10:26:15Z</time></trkpt><trkpt lat="51.8112076912" lon="-2.0927449688"><ele>151.35</ele><time>2023-08-09T10:26:39Z</time></trkpt><trkpt lat="51.8111915980" lon="-2.0926329028"><ele>150.86</ele><time>2023-08-09T10:27:02Z</time></trkpt><trkpt lat="51.8111389596" lon="-2.0924775023"><ele>150.65</ele><time>2023-08-09T10:27:27Z</time></trkpt><trkpt lat="51.8110756762" lon="-2.0922197588"><ele>150.23</ele><time>2023-08-09T10:27:52Z</time></trkpt><trkpt lat="51.8110315874" lon="-2.0919581596"><ele>149.79</ele><time>2023-08-09T10:28:19Z</time></trkpt><trkpt lat="51.8110143207" lon="-2.0917052776"><ele>149.60</ele><time>2023-08-09T10:28:49Z</time></trkpt><trkpt lat="51.8109834753" lon="-2.0915035252"><ele>149.50</ele><time>2023-08-09T10:29:03Z</time></trkpt><trkpt lat="51.8109352794" lon="-2.0912602823"><ele>149.61</ele><time>2023-08-09T10:29:27Z</time></trkpt><trkpt lat="51.8108646199" lon="-2.0910664089"><ele>149.61</ele><time>2023-08-09T10:29:49Z</time></trkpt><trkpt lat="51.8108722474" lon="-2.0909159537"><ele>149.61</ele><time>2023-08-09T10:30:06Z</time></trkpt><trkpt lat="51.8108470179" lon="-2.0908282790"><ele>149.61</ele><time>2023-08-09T10:30:29Z</time></trkpt><trkpt lat="51.8108480237" lon="-2.0907547697"><ele>149.61</ele><time>2023-08-09T10:30:52Z</time></trkpt><trkpt lat="51.8108067848" lon="-2.0907183923"><ele>149.61</ele><time>2023-08-09T10:31:18Z</time></trkpt><trkpt lat="51.8108645361" lon="-2.0907768141"><ele>149.61</ele><time>2023-08-09T10:31:43Z</time></trkpt><trkpt lat="51.8108399771" lon="-2.0907273609"><ele>149.61</ele><time>2023-08-09T10:32:15Z</time></trkpt><trkpt lat="51.8108288292" lon="-2.0906628203"><ele>149.61</ele><time>2023-08-09T10:32:43Z</time></trkpt><trkpt lat="51.8107568286" lon="-2.0905329846"><ele>149.68</ele><time>2023-08-09T10:32:57Z</time></trkpt><trkpt lat="51.8107234687" lon="-2.0904988702"><ele>149.66</ele><time>2023-08-09T10:33:23Z</time></trkpt><trkpt lat="51.8107655458" lon="-2.0904213376"><ele>149.72</ele><time>2023-08-09T10:33:44Z</time></trkpt><trkpt lat="51.8107545655" lon="-2.0903249457"><ele>149.63</ele><time>2023-08-09T10:33:59Z</time></trkpt><trkpt lat="51.8107835669" lon="-2.0900730696"><ele>149.62</ele><time>2023-08-09T10:34:19Z</time></trkpt><trkpt lat="51.8108360376" lon="-2.0898401365"><ele>149.23</ele><time>2023-08-09T10:34:45Z</time></trkpt><trkpt lat="51.8109056912" lon="-2.0895559061"><ele>148.64</ele><time>2023-08-09T10:35:09Z</time></trkpt><trkpt lat="51.8109567370" lon="-2.0894475281"><ele>148.18</ele><time>2023-08-09T10:35:28Z</time></trkpt><trkpt lat="51.8110062741" lon="-2.0893025212"><ele>147.79</ele><time>2023-08-09T10:35:45Z</time></trkpt><trkpt lat="51.8109962158" lon="-2.0891471207"><ele>147.61</ele><time>2023-08-09T10:36:08Z</time></trkpt><trkpt lat="51.8108859099" lon="-2.0891312789"><ele>148.02</ele><time>2023-08-09T10:36:27Z</time></trkpt><trkpt lat="51.8109231256" lon="-2.0891639683"><ele>148.15</ele><time>2023-08-09T10:36:48Z</time></trkpt><trkpt lat="51.8110558111" lon="-2.0891142637"><ele>147.61</ele><time>2023-08-09T10:37:05Z</time></trkpt><trkpt lat="51.8111123051" lon="-2.0890487172"><ele>147.03</ele><time>2023-08-09T10:37:24Z</time></trkpt><trkpt lat="51.8111594953" lon="-2.0890409220"><ele>147.03</ele><time>2023-08-09T10:37:43Z</time></trkpt><trkpt lat="51.8112422246" lon="-2.0890858490"><ele>147.03</ele><time>2023-08-09T10:38:19Z</time></trkpt><trkpt lat="51.8114111200" lon="-2.0890999306"><ele>145.68</ele><time>2023-08-09T10:38:49Z</time></trkpt><trkpt lat="51.8114971183" lon="-2.0890547521"><ele>145.08</ele><time>2023-08-09T10:39:15Z</time></trkpt><trkpt lat="51.8114880659" lon="-2.0890508965"><ele>144.70</ele><time>2023-08-09T10:39:32Z</time></trkpt><trkpt lat="51.8116000481" lon="-2.0891147666"><ele>144.50</ele><time>2023-08-09T10:39:46Z</time></trkpt><trkpt lat="51.8117023073" lon="-2.0891347155"><ele>144.42</ele><time>2023-08-09T10:39:59Z</time></trkpt><trkpt lat="51.8118115235" lon="-2.0892317779"><ele>143.36</ele><time>2023-08-09T10:40:17Z</time></trkpt><trkpt lat="51.8118978571" lon="-2.0892000943"><ele>143.10</ele><time>2023-08-09T10:40:35Z</time></trkpt><trkpt lat="51.8119591288" lon="-2.0891706739"><ele>143.01</ele><time>2023-08-09T10:40:55Z</time></trkpt><trkpt lat="51.8119785748" lon="-2.0891424268"><ele>142.72</ele><time>2023-08-09T10:41:21Z</time></trkpt><trkpt lat="51.8120057322" lon="-2.0891432650"><ele>142.91</ele><time>2023-08-09T10:41:48Z</time></trkpt><trkpt lat="51.8122087419" lon="-2.0892312750"><ele>142.49</ele><time>2023-08-09T10:42:11Z</time></trkpt><trkpt lat="51.8122731149" lon="-2.0892311074"><ele>142.22</ele><time>2023-08-09T10:42:21Z</time></trkpt><trkpt lat="51.8123994302" lon="-2.0893032756"><ele>141.87</ele><time>2023-08-09T10:42:34Z</time></trkpt><trkpt lat="51.8125448562" lon="-2.0893615298"><ele>141.15</ele><time>2023-08-09T10:42:50Z</time></trkpt><trkpt lat="51.8126067147" lon="-2.0893509686"><ele>140.77</ele><time>2023-08-09T10:43:10Z</time></trkpt><trkpt lat="51.8126492109" lon="-2.0893188659"><ele>140.72</ele><time>2023-08-09T10:43:25Z</time></trkpt><trkpt lat="51.8125750311" lon="-2.0893076342"><ele>140.95</ele><time>2023-08-09T10:43:37Z</time></trkpt><trkpt lat="51.8126530666" lon="-2.0893198717"><ele>140.75</ele><time>2023-08-09T10:43:48Z</time></trkpt><trkpt lat="51.8127424177" lon="-2.0893408265"><ele>140.94</ele><time>2023-08-09T10:43:59Z</time></trkpt><trkpt lat="51.8128300924" lon="-2.0894518029"><ele>140.88</ele><time>2023-08-09T10:44:12Z</time></trkpt><trkpt lat="51.8128691521" lon="-2.0894855820"><ele>141.55</ele><time>2023-08-09T10:44:37Z</time></trkpt><trkpt lat="51.8129019253" lon="-2.0894305967"><ele>140.81</ele><time>2023-08-09T10:44:58Z</time></trkpt><trkpt lat="51.8129336927" lon="-2.0893834904"><ele>141.06</ele><time>2023-08-09T10:45:21Z</time></trkpt><trkpt lat="51.8129768595" lon="-2.0893935487"><ele>141.08</ele><time>2023-08-09T10:45:38Z</time></trkpt><trkpt lat="51.8130265642" lon="-2.0893469453"><ele>141.08</ele><time>2023-08-09T10:45:58Z</time></trkpt><trkpt lat="51.8131495267" lon="-2.0893193688"><ele>141.32</ele><time>2023-08-09T10:46:19Z</time></trkpt><trkpt lat="51.8132354412" lon="-2.0892639644"><ele>141.75</ele><time>2023-08-09T10:46:36Z</time></trkpt><trkpt lat="51.8132805359" lon="-2.0891655609"><ele>142.60</ele><time>2023-08-09T10:46:53Z</time></trkpt><trkpt lat="51.8133207690" lon="-2.0891181193"><ele>143.43</ele><time>2023-08-09T10:47:14Z</time></trkpt><trkpt lat="51.8134366069" lon="-2.0888728648"><ele>144.23</ele><time>2023-08-09T10:47:41Z</time></trkpt><trkpt lat="51.8134973757" lon="-2.0885644946"><ele>145.01</ele><time>2023-08-09T10:48:05Z</time></trkpt><trkpt lat="51.8136073463" lon="-2.0884512551"><ele>145.60</ele><time>2023-08-09T10:48:29Z</time></trkpt><trkpt lat="51.8137494195" lon="-2.0883314777"><ele>145.98</ele><time>2023-08-09T10:48:51Z</time></trkpt><trkpt lat="51.8138525169" lon="-2.0881780051"><ele>146.54</ele><time>2023-08-09T10:49:14Z</time></trkpt><trkpt lat="51.8139039818" lon="-2.0880723093"><ele>147.16</ele><time>2023-08-09T10:49:30Z</time></trkpt><trkpt lat="51.8139348272" lon="-2.0879874844"><ele>147.25</ele><time>2023-08-09T10:49:54Z</time></trkpt><trkpt lat="51.8139650859" lon="-2.0879952796"><ele>147.26</ele><time>2023-08-09T10:50:17Z</time></trkpt><trkpt lat="51.8139204103" lon="-2.0880282205"><ele>147.61</ele><time>2023-08-09T10:50:38Z</time></trkpt><trkpt lat="51.8139078375" lon="-2.0880828705"><ele>147.61</ele><time>2023-08-09T10:51:03Z</time></trkpt><trkpt lat="51.8138890620" lon="-2.0882575493"><ele>147.61</ele><time>2023-08-09T10:51:26Z</time></trkpt><trkpt lat="51.8138102721" lon="-2.0883826911"><ele>146.94</ele><time>2023-08-09T10:51:40Z</time></trkpt><trkpt lat="51.8136927579" lon="-2.0885333978"><ele>145.83</ele><time>2023-08-09T10:51:55Z</time></trkpt><trkpt lat="51.8136429694" lon="-2.0886338130"><ele>145.28</ele><time>2023-08-09T10:52:12Z</time></trkpt><trkpt lat="51.8134712242" lon="-2.0888906345"><ele>144.40</ele><time>2023-08-09T10:52:46Z</time></trkpt><trkpt lat="51.8134510238" lon="-2.0890300255"><ele>144.00</ele><time>2023-08-09T10:53:08Z</time></trkpt><trkpt lat="51.8133601639" lon="-2.0894309320"><ele>143.60</ele><time>2023-08-09T10:53:43Z</time></trkpt><trkpt lat="51.8133586552" lon="-2.0894616097"><ele>143.69</ele><time>2023-08-09T10:53:59Z</time></trkpt><trkpt lat="51.8133695517" lon="-2.0895414893"><ele>143.77</ele><time>2023-08-09T10:54:26Z</time></trkpt><trkpt lat="51.8133524526" lon="-2.0895435009"><ele>143.77</ele><time>2023-08-09T10:54:59Z</time></trkpt><trkpt lat="51.8133920152" lon="-2.0896213688"><ele>143.77</ele><time>2023-08-09T10:55:23Z</time></trkpt><trkpt lat="51.8133553863" lon="-2.0897507016"><ele>144.79</ele><time>2023-08-09T10:55:41Z</time></trkpt><trkpt lat="51.8133559730" lon="-2.0897858217"><ele>144.94</ele><time>2023-08-09T10:55:43Z</time></trkpt><trkpt lat="51.8133760057" lon="-2.0899434015"><ele>145.49</ele><time>2023-08-09T10:55:55Z</time></trkpt><trkpt lat="51.8135054223" lon="-2.0900606643"><ele>146.17</ele><time>2023-08-09T10:56:11Z</time></trkpt><trkpt lat="51.8135775067" lon="-2.0903116185"><ele>147.53</ele><time>2023-08-09T10:56:25Z</time></trkpt><trkpt lat="51.8138182350" lon="-2.0904804301"><ele>149.29</ele><time>2023-08-09T10:56:46Z</time></trkpt><trkpt lat="51.8139438797" lon="-2.0905605610"><ele>150.32</ele><time>2023-08-09T10:57:02Z</time></trkpt><trkpt lat="51.8138559535" lon="-2.0904460642"><ele>150.31</ele><time>2023-08-09T10:57:20Z</time></trkpt><trkpt lat="51.8138340767" lon="-2.0903120376"><ele>149.44</ele><time>2023-08-09T10:57:40Z</time></trkpt><trkpt lat="51.8138196599" lon="-2.0902840421"><ele>149.07</ele><time>2023-08-09T10:58:01Z</time></trkpt><trkpt lat="51.8137997948" lon="-2.0903054997"><ele>148.90</ele><time>2023-08-09T10:58:03Z</time></trkpt><trkpt lat="51.8137792591" lon="-2.0903187431"><ele>149.58</ele><time>2023-08-09T10:58:07Z</time></trkpt></trkseg></trk></gpx>